createdAt,value
2018-12-23T00:00:19.009Z,7.5
2018-12-23T00:00:59.578Z,7.51
2018-12-23T00:01:40.162Z,7.43
2018-12-23T00:02:20.719Z,7.45
2018-12-23T00:03:01.297Z,7.4
2018-12-23T00:03:41.863Z,7.45
2018-12-23T00:04:22.421Z,7.39
2018-12-23T00:05:11.262Z,7.39
2018-12-23T00:05:43.553Z,7.4
2018-12-23T00:06:24.158Z,7.45
2018-12-23T00:07:04.701Z,7.43
2018-12-23T00:07:45.320Z,7.39
2018-12-23T00:08:25.874Z,7.42
2018-12-23T00:09:06.443Z,7.45
2018-12-23T00:09:47.031Z,7.42
2018-12-23T00:10:27.586Z,7.39
2018-12-23T00:11:08.291Z,7.43
2018-12-23T00:11:48.854Z,7.5
2018-12-23T00:12:29.418Z,7.38
2018-12-23T00:13:09.995Z,7.43
2018-12-23T00:13:50.557Z,7.38
2018-12-23T00:14:31.116Z,7.39
2018-12-23T00:15:11.668Z,7.47
2018-12-23T00:15:52.245Z,7.43
2018-12-23T00:16:32.855Z,7.31
2018-12-23T00:17:13.418Z,7.32
2018-12-23T00:17:53.978Z,7.4
2018-12-23T00:18:34.540Z,7.43
2018-12-23T00:19:15.093Z,7.43
2018-12-23T00:19:55.655Z,7.43
2018-12-23T00:20:36.208Z,7.42
2018-12-23T00:21:16.801Z,7.4
2018-12-23T00:21:57.405Z,7.4
2018-12-23T00:22:37.953Z,7.42
2018-12-23T00:23:18.520Z,7.43
2018-12-23T00:23:59.116Z,7.47
2018-12-23T00:24:39.691Z,7.39
2018-12-23T00:25:20.252Z,7.43
2018-12-23T00:26:00.806Z,7.42
2018-12-23T00:26:41.370Z,7.39
2018-12-23T00:27:21.926Z,7.31
2018-12-23T00:28:02.500Z,7.43
2018-12-23T00:28:43.059Z,7.43
2018-12-23T00:29:23.643Z,7.42
2018-12-23T00:30:04.213Z,7.47
2018-12-23T00:30:44.765Z,7.4
2018-12-23T00:31:25.326Z,7.4
2018-12-23T00:32:05.914Z,7.5
2018-12-23T00:32:46.470Z,7.43
2018-12-23T00:33:27.035Z,7.4
2018-12-23T00:34:07.607Z,7.45
2018-12-23T00:34:48.177Z,7.5
2018-12-23T00:35:28.726Z,7.47
2018-12-23T00:36:09.293Z,7.43
2018-12-23T00:36:49.861Z,7.43
2018-12-23T00:37:30.458Z,7.45
2018-12-23T00:38:11.021Z,7.4
2018-12-23T00:38:51.616Z,7.39
2018-12-23T00:39:32.206Z,7.45
2018-12-23T00:40:12.775Z,7.39
2018-12-23T00:40:53.346Z,7.42
2018-12-23T00:41:33.923Z,7.45
2018-12-23T00:42:14.477Z,7.48
2018-12-23T00:42:55.067Z,7.43
2018-12-23T00:43:35.658Z,7.45
2018-12-23T00:44:16.224Z,7.39
2018-12-23T00:44:56.780Z,7.47
2018-12-23T00:45:37.375Z,7.47
2018-12-23T00:46:17.936Z,7.47
2018-12-23T00:46:58.503Z,7.42
2018-12-23T00:47:39.054Z,7.45
2018-12-23T00:48:19.646Z,7.43
2018-12-23T00:49:00.220Z,7.39
2018-12-23T00:49:40.778Z,7.48
2018-12-23T00:50:21.342Z,7.4
2018-12-23T00:51:01.895Z,7.47
2018-12-23T00:51:42.451Z,7.42
2018-12-23T00:52:23.015Z,7.42
2018-12-23T00:53:03.567Z,7.4
2018-12-23T00:53:44.118Z,7.39
2018-12-23T00:54:24.676Z,7.42
2018-12-23T00:55:05.290Z,7.47
2018-12-23T00:55:45.853Z,7.39
2018-12-23T00:56:26.409Z,7.45
2018-12-23T00:57:06.974Z,7.38
2018-12-23T00:57:47.601Z,7.43
2018-12-23T00:58:28.165Z,7.39
2018-12-23T00:59:08.712Z,7.33
2018-12-23T00:59:49.296Z,7.32
2018-12-23T01:00:29.876Z,7.4
2018-12-23T01:01:10.439Z,7.42
2018-12-23T01:01:51.015Z,7.38
2018-12-23T01:02:31.568Z,7.42
2018-12-23T01:03:12.115Z,7.47
2018-12-23T01:03:52.677Z,7.38
2018-12-23T01:04:33.258Z,7.4
2018-12-23T01:05:13.819Z,7.42
2018-12-23T01:05:54.378Z,7.38
2018-12-23T01:06:34.968Z,7.43
2018-12-23T01:07:15.518Z,7.36
2018-12-23T01:07:56.152Z,7.38
2018-12-23T01:08:36.715Z,7.42
2018-12-23T01:09:17.275Z,7.45
2018-12-23T01:09:57.853Z,7.42
2018-12-23T01:10:38.462Z,7.38
2018-12-23T01:11:19.032Z,7.45
2018-12-23T01:11:59.601Z,7.45
2018-12-23T01:12:40.142Z,7.39
2018-12-23T01:13:20.780Z,7.42
2018-12-23T01:14:01.413Z,7.42
2018-12-23T01:14:41.973Z,7.43
2018-12-23T01:15:22.537Z,7.35
2018-12-23T01:16:03.135Z,7.35
2018-12-23T01:16:43.682Z,7.4
2018-12-23T01:17:24.288Z,7.43
2018-12-23T01:18:04.849Z,7.47
2018-12-23T01:18:45.411Z,7.42
2018-12-23T01:19:25.960Z,7.42
2018-12-23T01:20:06.536Z,7.45
2018-12-23T01:20:47.116Z,7.45
2018-12-23T01:21:27.679Z,7.39
2018-12-23T01:22:08.241Z,7.43
2018-12-23T01:22:48.808Z,7.4
2018-12-23T01:23:29.369Z,7.36
2018-12-23T01:24:09.934Z,7.43
2018-12-23T01:24:50.515Z,7.43
2018-12-23T01:25:31.055Z,7.47
2018-12-23T01:26:11.618Z,7.43
2018-12-23T01:26:52.209Z,7.33
2018-12-23T01:27:32.792Z,7.36
2018-12-23T01:28:13.447Z,7.38
2018-12-23T01:28:53.970Z,7.4
2018-12-23T01:29:34.527Z,7.42
2018-12-23T01:30:15.136Z,7.43
2018-12-23T01:30:55.742Z,7.47
2018-12-23T01:31:36.316Z,7.4
2018-12-23T01:32:16.915Z,7.38
2018-12-23T01:32:57.485Z,7.45
2018-12-23T01:33:38.048Z,7.43
2018-12-23T01:34:18.642Z,7.4
2018-12-23T01:34:59.207Z,7.42
2018-12-23T01:35:39.764Z,7.42
2018-12-23T01:36:20.322Z,7.42
2018-12-23T01:37:00.895Z,7.36
2018-12-23T01:37:41.472Z,7.43
2018-12-23T01:38:22.028Z,7.43
2018-12-23T01:39:02.585Z,7.33
2018-12-23T01:39:43.122Z,7.36
2018-12-23T01:40:23.701Z,7.45
2018-12-23T01:41:04.541Z,7.43
2018-12-23T01:41:44.821Z,7.42
2018-12-23T01:42:25.374Z,7.33
2018-12-23T01:43:05.932Z,7.4
2018-12-23T01:43:46.538Z,7.43
2018-12-23T01:44:27.131Z,7.4
2018-12-23T01:45:07.708Z,7.42
2018-12-23T01:45:48.285Z,7.42
2018-12-23T01:46:28.863Z,7.38
2018-12-23T01:47:09.410Z,7.35
2018-12-23T01:47:49.978Z,7.35
2018-12-23T01:48:30.541Z,7.42
2018-12-23T01:49:11.120Z,7.32
2018-12-23T01:49:51.686Z,7.31
2018-12-23T01:50:32.248Z,7.33
2018-12-23T01:51:12.796Z,7.32
2018-12-23T01:51:53.388Z,7.35
2018-12-23T01:52:33.928Z,7.32
2018-12-23T01:53:14.487Z,7.32
2018-12-23T01:53:55.081Z,7.33
2018-12-23T01:54:35.609Z,7.38
2018-12-23T01:55:16.236Z,7.32
2018-12-23T01:55:56.799Z,7.35
2018-12-23T01:56:37.400Z,7.29
2018-12-23T01:57:17.965Z,7.28
2018-12-23T01:57:58.566Z,7.33
2018-12-23T01:58:39.139Z,7.29
2018-12-23T01:59:19.697Z,7.31
2018-12-23T02:00:00.240Z,7.31
2018-12-23T02:00:40.792Z,7.29
2018-12-23T02:01:21.359Z,7.29
2018-12-23T02:02:01.947Z,7.31
2018-12-23T02:02:42.579Z,7.28
2018-12-23T02:03:23.151Z,7.2
2018-12-23T02:04:03.711Z,7.21
2018-12-23T02:04:44.268Z,7.24
2018-12-23T02:05:25.008Z,7.25
2018-12-23T02:06:05.559Z,7.2
2018-12-23T02:06:46.142Z,7.18
2018-12-23T02:07:26.729Z,7.23
2018-12-23T02:08:07.304Z,7.21
2018-12-23T02:08:47.873Z,7.15
2018-12-23T02:09:28.439Z,7.23
2018-12-23T02:10:09.029Z,7.17
2018-12-23T02:10:49.591Z,7.15
2018-12-23T02:11:30.241Z,7.2
2018-12-23T02:12:10.841Z,7.07
2018-12-23T02:12:51.413Z,7.02
2018-12-23T02:13:31.968Z,7.06
2018-12-23T02:14:12.522Z,7.14
2018-12-23T02:14:53.087Z,7.03
2018-12-23T02:15:33.645Z,7.06
2018-12-23T02:16:14.203Z,7.13
2018-12-23T02:16:54.768Z,7.02
2018-12-23T02:17:35.329Z,7.13
2018-12-23T02:18:15.909Z,7.11
2018-12-23T02:18:56.478Z,7.07
2018-12-23T02:19:37.041Z,7.05
2018-12-23T02:20:17.590Z,7.06
2018-12-23T02:20:58.155Z,7.02
2018-12-23T02:21:38.724Z,7.1
2018-12-23T02:22:19.284Z,7.03
2018-12-23T02:22:59.868Z,7.07
2018-12-23T02:23:40.477Z,7.06
2018-12-23T02:24:21.129Z,6.97
2018-12-23T02:25:01.665Z,6.95
2018-12-23T02:25:42.230Z,7.05
2018-12-23T02:26:22.805Z,6.89
2018-12-23T02:27:03.361Z,7
2018-12-23T02:27:43.926Z,6.93
2018-12-23T02:28:24.489Z,7.05
2018-12-23T02:29:05.045Z,7
2018-12-23T02:29:45.680Z,6.92
2018-12-23T02:30:26.240Z,7
2018-12-23T02:31:06.804Z,7.02
2018-12-23T02:31:47.392Z,6.89
2018-12-23T02:32:27.934Z,6.96
2018-12-23T02:33:08.490Z,6.99
2018-12-23T02:33:49.054Z,6.85
2018-12-23T02:34:29.604Z,7
2018-12-23T02:35:10.250Z,6.95
2018-12-23T02:35:55.373Z,6.95
2018-12-23T02:36:31.383Z,7
2018-12-23T02:37:11.981Z,6.88
2018-12-23T02:37:52.557Z,6.85
2018-12-23T02:38:33.123Z,6.92
2018-12-23T02:39:13.675Z,6.85
2018-12-23T02:39:54.222Z,6.88
2018-12-23T02:40:34.764Z,6.82
2018-12-23T02:41:15.338Z,6.89
2018-12-23T02:41:55.912Z,6.82
2018-12-23T02:42:36.476Z,6.85
2018-12-23T02:43:17.459Z,6.89
2018-12-23T02:43:58.007Z,6.82
2018-12-23T02:44:38.586Z,6.85
2018-12-23T02:45:19.132Z,6.82
2018-12-23T02:45:59.711Z,6.89
2018-12-23T02:46:40.344Z,6.88
2018-12-23T02:47:20.929Z,6.82
2018-12-23T02:48:01.508Z,6.89
2018-12-23T02:48:42.047Z,6.87
2018-12-23T02:49:22.613Z,6.81
2018-12-23T02:50:03.179Z,6.75
2018-12-23T02:50:43.740Z,6.82
2018-12-23T02:51:24.294Z,6.85
2018-12-23T02:52:04.874Z,6.79
2018-12-23T02:52:45.474Z,6.92
2018-12-23T02:53:26.141Z,6.87
2018-12-23T02:54:06.702Z,6.96
2018-12-23T02:54:47.267Z,6.87
2018-12-23T02:55:27.860Z,6.87
2018-12-23T02:56:08.433Z,6.89
2018-12-23T02:56:48.996Z,6.93
2018-12-23T02:57:29.559Z,6.85
2018-12-23T02:58:10.118Z,6.85
2018-12-23T02:58:50.704Z,6.79
2018-12-23T02:59:31.300Z,6.89
2018-12-23T03:00:11.851Z,6.78
2018-12-23T03:00:52.401Z,6.74
2018-12-23T03:01:32.958Z,6.82
2018-12-23T03:02:13.528Z,6.81
2018-12-23T03:02:54.161Z,6.75
2018-12-23T03:03:34.731Z,6.79
2018-12-23T03:04:15.297Z,6.75
2018-12-23T03:04:55.884Z,6.75
2018-12-23T03:05:36.454Z,6.67
2018-12-23T03:06:17.026Z,6.75
2018-12-23T03:06:57.578Z,6.7
2018-12-23T03:07:38.133Z,6.7
2018-12-23T03:08:18.721Z,6.74
2018-12-23T03:08:59.298Z,6.7
2018-12-23T03:09:39.853Z,6.72
2018-12-23T03:10:20.474Z,6.77
2018-12-23T03:11:01.055Z,6.75
2018-12-23T03:11:41.609Z,6.79
2018-12-23T03:12:22.167Z,6.85
2018-12-23T03:13:02.809Z,6.82
2018-12-23T03:13:43.380Z,6.84
2018-12-23T03:14:23.933Z,6.72
2018-12-23T03:15:04.490Z,6.82
2018-12-23T03:15:45.085Z,6.78
2018-12-23T03:16:25.605Z,6.82
2018-12-23T03:17:06.190Z,6.85
2018-12-23T03:17:46.800Z,6.85
2018-12-23T03:18:27.361Z,6.78
2018-12-23T03:19:07.907Z,6.87
2018-12-23T03:19:48.604Z,6.75
2018-12-23T03:20:29.179Z,6.77
2018-12-23T03:21:09.753Z,6.69
2018-12-23T03:21:50.314Z,6.75
2018-12-23T03:22:31.027Z,6.72
2018-12-23T03:23:11.581Z,6.81
2018-12-23T03:23:52.162Z,6.77
2018-12-23T03:24:32.687Z,6.78
2018-12-23T03:25:13.251Z,6.7
2018-12-23T03:25:53.788Z,6.89
2018-12-23T03:26:34.354Z,6.85
2018-12-23T03:27:14.898Z,6.79
2018-12-23T03:27:55.530Z,6.81
2018-12-23T03:28:36.141Z,6.75
2018-12-23T03:29:16.699Z,6.78
2018-12-23T03:29:57.251Z,6.74
2018-12-23T03:30:37.841Z,6.69
2018-12-23T03:31:18.428Z,6.77
2018-12-23T03:31:59.034Z,6.75
2018-12-23T03:32:39.563Z,6.74
2018-12-23T03:33:20.112Z,6.7
2018-12-23T03:34:00.689Z,6.78
2018-12-23T03:34:41.278Z,6.69
2018-12-23T03:35:21.840Z,6.74
2018-12-23T03:36:02.436Z,6.7
2018-12-23T03:36:43.013Z,6.77
2018-12-23T03:37:23.573Z,6.75
2018-12-23T03:38:04.113Z,6.84
2018-12-23T03:38:44.684Z,6.78
2018-12-23T03:39:25.236Z,6.85
2018-12-23T03:40:05.797Z,6.82
2018-12-23T03:40:46.428Z,6.79
2018-12-23T03:41:26.984Z,6.81
2018-12-23T03:42:07.561Z,6.79
2018-12-23T03:42:48.148Z,6.81
2018-12-23T03:43:28.709Z,6.82
2018-12-23T03:44:09.274Z,6.85
2018-12-23T03:44:49.840Z,6.85
2018-12-23T03:45:30.412Z,6.84
2018-12-23T03:46:10.977Z,6.84
2018-12-23T03:46:51.600Z,6.89
2018-12-23T03:47:32.234Z,6.81
2018-12-23T03:48:12.686Z,6.88
2018-12-23T03:48:53.238Z,6.88
2018-12-23T03:49:33.783Z,6.87
2018-12-23T03:50:14.333Z,6.89
2018-12-23T03:50:54.901Z,6.93
2018-12-23T03:51:35.461Z,6.88
2018-12-23T03:52:16.016Z,6.85
2018-12-23T03:52:56.574Z,6.89
2018-12-23T03:53:37.143Z,6.81
2018-12-23T03:54:17.711Z,6.84
2018-12-23T03:54:58.283Z,6.84
2018-12-23T03:55:38.840Z,6.87
2018-12-23T03:56:19.406Z,6.88
2018-12-23T03:56:59.957Z,6.84
2018-12-23T03:57:40.525Z,6.88
2018-12-23T03:58:21.094Z,6.89
2018-12-23T03:59:01.701Z,6.85
2018-12-23T03:59:42.313Z,6.85
2018-12-23T04:00:22.883Z,6.87
2018-12-23T04:01:03.440Z,6.85
2018-12-23T04:01:44.015Z,6.92
2018-12-23T04:02:24.592Z,6.89
2018-12-23T04:03:05.154Z,6.81
2018-12-23T04:03:45.726Z,6.79
2018-12-23T04:04:26.295Z,6.85
2018-12-23T04:05:06.854Z,6.81
2018-12-23T04:05:47.413Z,6.85
2018-12-23T04:06:27.969Z,6.85
2018-12-23T04:07:08.519Z,6.87
2018-12-23T04:07:49.108Z,6.85
2018-12-23T04:08:29.830Z,6.88
2018-12-23T04:09:10.287Z,6.89
2018-12-23T04:09:50.840Z,6.79
2018-12-23T04:10:31.385Z,6.95
2018-12-23T04:11:11.933Z,6.88
2018-12-23T04:11:52.504Z,6.92
2018-12-23T04:12:33.061Z,6.85
2018-12-23T04:13:13.617Z,6.93
2018-12-23T04:13:54.179Z,6.84
2018-12-23T04:14:34.789Z,6.89
2018-12-23T04:15:15.430Z,6.97
2018-12-23T04:15:55.993Z,6.92
2018-12-23T04:16:36.542Z,6.93
2018-12-23T04:17:17.125Z,6.96
2018-12-23T04:17:57.675Z,6.96
2018-12-23T04:18:38.343Z,6.96
2018-12-23T04:19:19.005Z,6.95
2018-12-23T04:19:59.575Z,6.88
2018-12-23T04:20:40.204Z,6.95
2018-12-23T04:21:20.792Z,6.95
2018-12-23T04:22:01.364Z,6.87
2018-12-23T04:22:42.089Z,6.89
2018-12-23T04:23:22.674Z,6.89
2018-12-23T04:24:03.272Z,6.87
2018-12-23T04:24:43.870Z,6.84
2018-12-23T04:25:24.557Z,6.85
2018-12-23T04:26:05.113Z,6.85
2018-12-23T04:26:45.698Z,6.85
2018-12-23T04:27:26.264Z,6.78
2018-12-23T04:28:06.885Z,6.81
2018-12-23T04:28:47.442Z,6.85
2018-12-23T04:29:28.187Z,6.84
2018-12-23T04:30:08.754Z,6.87
2018-12-23T04:30:49.334Z,6.82
2018-12-23T04:31:29.898Z,6.85
2018-12-23T04:32:10.455Z,6.85
2018-12-23T04:32:51.033Z,6.82
2018-12-23T04:33:31.606Z,6.87
2018-12-23T04:34:12.165Z,6.81
2018-12-23T04:34:52.785Z,6.81
2018-12-23T04:35:33.339Z,6.85
2018-12-23T04:36:13.911Z,6.77
2018-12-23T04:36:54.474Z,6.74
2018-12-23T04:37:35.032Z,6.82
2018-12-23T04:38:15.595Z,6.82
2018-12-23T04:38:56.163Z,6.78
2018-12-23T04:39:36.752Z,6.75
2018-12-23T04:40:17.319Z,6.82
2018-12-23T04:40:57.874Z,6.82
2018-12-23T04:41:38.441Z,6.82
2018-12-23T04:42:19.041Z,6.75
2018-12-23T04:42:59.841Z,6.81
2018-12-23T04:43:40.409Z,6.78
2018-12-23T04:44:20.970Z,6.72
2018-12-23T04:45:01.539Z,6.77
2018-12-23T04:45:42.125Z,6.74
2018-12-23T04:46:22.764Z,6.74
2018-12-23T04:47:03.348Z,6.75
2018-12-23T04:47:43.907Z,6.69
2018-12-23T04:48:24.585Z,6.66
2018-12-23T04:49:05.029Z,6.7
2018-12-23T04:49:45.613Z,6.69
2018-12-23T04:50:26.166Z,6.74
2018-12-23T04:51:06.737Z,6.69
2018-12-23T04:51:47.303Z,6.72
2018-12-23T04:52:27.857Z,6.74
2018-12-23T04:53:08.417Z,6.72
2018-12-23T04:53:48.992Z,6.81
2018-12-23T04:54:29.559Z,6.74
2018-12-23T04:55:10.183Z,6.74
2018-12-23T04:55:50.786Z,6.77
2018-12-23T04:56:31.329Z,6.77
2018-12-23T04:57:11.891Z,6.78
2018-12-23T04:57:52.448Z,6.74
2018-12-23T04:58:33.017Z,6.78
2018-12-23T04:59:13.582Z,6.72
2018-12-23T04:59:54.154Z,6.72
2018-12-23T05:00:34.739Z,6.78
2018-12-23T05:01:15.352Z,6.81
2018-12-23T05:01:55.887Z,6.84
2018-12-23T05:02:36.455Z,6.85
2018-12-23T05:03:17.040Z,6.84
2018-12-23T05:03:57.592Z,6.81
2018-12-23T05:04:38.164Z,6.79
2018-12-23T05:05:18.747Z,6.84
2018-12-23T05:05:59.310Z,6.79
2018-12-23T05:06:43.375Z,6.81
2018-12-23T05:07:20.453Z,6.77
2018-12-23T05:08:01.026Z,6.78
2018-12-23T05:08:41.649Z,6.77
2018-12-23T05:09:22.171Z,6.77
2018-12-23T05:10:02.784Z,6.79
2018-12-23T05:10:43.341Z,6.81
2018-12-23T05:11:23.918Z,6.78
2018-12-23T05:12:04.494Z,6.75
2018-12-23T05:12:45.043Z,6.77
2018-12-23T05:13:25.613Z,6.78
2018-12-23T05:14:06.187Z,6.78
2018-12-23T05:14:46.740Z,6.79
2018-12-23T05:15:27.291Z,6.82
2018-12-23T05:16:07.865Z,6.81
2018-12-23T05:16:48.411Z,6.87
2018-12-23T05:17:29.003Z,6.87
2018-12-23T05:18:09.557Z,6.81
2018-12-23T05:18:50.195Z,6.93
2018-12-23T05:19:30.734Z,6.96
2018-12-23T05:20:11.319Z,6.88
2018-12-23T05:20:51.875Z,6.81
2018-12-23T05:21:32.470Z,6.87
2018-12-23T05:22:13.063Z,6.93
2018-12-23T05:22:53.670Z,6.87
2018-12-23T05:23:34.259Z,6.84
2018-12-23T05:24:14.848Z,6.87
2018-12-23T05:24:55.413Z,6.84
2018-12-23T05:25:35.963Z,6.95
2018-12-23T05:26:16.574Z,6.93
2018-12-23T05:26:57.154Z,6.97
2018-12-23T05:27:37.729Z,6.97
2018-12-23T05:28:18.280Z,6.99
2018-12-23T05:28:58.869Z,6.95
2018-12-23T05:29:39.428Z,6.82
2018-12-23T05:30:19.987Z,6.85
2018-12-23T05:31:00.550Z,6.85
2018-12-23T05:31:41.110Z,6.88
2018-12-23T05:32:21.680Z,6.87
2018-12-23T05:33:02.255Z,6.79
2018-12-23T05:33:42.831Z,6.84
2018-12-23T05:34:23.392Z,6.87
2018-12-23T05:35:03.952Z,6.93
2018-12-23T05:35:44.519Z,6.88
2018-12-23T05:36:25.080Z,6.88
2018-12-23T05:37:05.638Z,6.88
2018-12-23T05:37:46.199Z,6.88
2018-12-23T05:38:26.764Z,6.85
2018-12-23T05:39:07.330Z,6.87
2018-12-23T05:39:47.895Z,6.82
2018-12-23T05:40:28.450Z,6.87
2018-12-23T05:41:09.040Z,6.89
2018-12-23T05:41:49.599Z,6.84
2018-12-23T05:42:30.173Z,6.84
2018-12-23T05:43:10.749Z,6.87
2018-12-23T05:43:51.397Z,6.85
2018-12-23T05:44:31.958Z,6.85
2018-12-23T05:45:12.529Z,6.87
2018-12-23T05:45:53.087Z,6.87
2018-12-23T05:46:33.647Z,6.85
2018-12-23T05:47:14.230Z,6.87
2018-12-23T05:47:54.802Z,6.93
2018-12-23T05:48:35.355Z,6.85
2018-12-23T05:49:15.915Z,6.82
2018-12-23T05:49:56.487Z,6.81
2018-12-23T05:50:37.050Z,6.84
2018-12-23T05:51:17.622Z,6.85
2018-12-23T05:51:58.244Z,6.92
2018-12-23T05:52:38.804Z,6.88
2018-12-23T05:53:19.361Z,6.85
2018-12-23T05:53:59.956Z,6.84
2018-12-23T05:54:40.511Z,6.92
2018-12-23T05:55:21.101Z,6.88
2018-12-23T05:56:01.648Z,6.92
2018-12-23T05:56:42.258Z,6.85
2018-12-23T05:57:22.842Z,6.82
2018-12-23T05:58:03.399Z,6.85
2018-12-23T05:58:43.977Z,6.97
2018-12-23T05:59:24.535Z,6.89
2018-12-23T06:00:05.132Z,6.88
2018-12-23T06:00:45.712Z,6.93
2018-12-23T06:01:26.273Z,6.87
2018-12-23T06:02:06.852Z,6.88
2018-12-23T06:02:47.429Z,6.89
2018-12-23T06:03:27.984Z,6.82
2018-12-23T06:04:08.565Z,6.88
2018-12-23T06:04:49.119Z,6.85
2018-12-23T06:05:29.663Z,6.82
2018-12-23T06:06:10.228Z,6.88
2018-12-23T06:06:50.799Z,6.82
2018-12-23T06:07:31.371Z,6.85
2018-12-23T06:08:11.933Z,6.84
2018-12-23T06:08:52.543Z,6.89
2018-12-23T06:09:33.109Z,6.85
2018-12-23T06:10:13.664Z,6.85
2018-12-23T06:10:54.230Z,6.87
2018-12-23T06:11:34.802Z,6.87
2018-12-23T06:12:15.376Z,6.84
2018-12-23T06:12:55.923Z,6.82
2018-12-23T06:13:36.520Z,6.87
2018-12-23T06:14:17.104Z,6.88
2018-12-23T06:14:57.703Z,6.87
2018-12-23T06:15:38.271Z,6.87
2018-12-23T06:16:18.861Z,6.84
2018-12-23T06:16:59.439Z,6.92
2018-12-23T06:17:39.990Z,6.82
2018-12-23T06:18:20.620Z,6.88
2018-12-23T06:19:01.208Z,6.88
2018-12-23T06:19:41.845Z,6.88
2018-12-23T06:20:22.414Z,6.95
2018-12-23T06:21:02.981Z,6.95
2018-12-23T06:21:43.591Z,6.97
2018-12-23T06:22:24.151Z,6.96
2018-12-23T06:23:04.744Z,6.97
2018-12-23T06:23:45.378Z,6.96
2018-12-23T06:24:25.935Z,6.99
2018-12-23T06:25:06.523Z,6.95
2018-12-23T06:25:47.108Z,6.95
2018-12-23T06:26:27.667Z,6.88
2018-12-23T06:27:08.222Z,6.96
2018-12-23T06:27:48.795Z,6.87
2018-12-23T06:28:29.383Z,6.88
2018-12-23T06:29:09.966Z,6.87
2018-12-23T06:29:50.551Z,6.96
2018-12-23T06:30:31.114Z,6.92
2018-12-23T06:31:11.712Z,6.99
2018-12-23T06:31:52.267Z,6.97
2018-12-23T06:32:32.830Z,6.93
2018-12-23T06:33:13.435Z,7.03
2018-12-23T06:33:53.989Z,7
2018-12-23T06:34:34.563Z,6.99
2018-12-23T06:35:15.129Z,6.95
2018-12-23T06:35:55.698Z,7.02
2018-12-23T06:36:36.322Z,6.96
2018-12-23T06:37:16.879Z,7.05
2018-12-23T06:37:57.459Z,6.99
2018-12-23T06:38:38.089Z,6.96
2018-12-23T06:39:18.642Z,7.02
2018-12-23T06:39:59.206Z,6.97
2018-12-23T06:40:39.775Z,6.95
2018-12-23T06:41:20.392Z,7.07
2018-12-23T06:42:00.948Z,7.05
2018-12-23T06:42:41.504Z,7.03
2018-12-23T06:43:22.379Z,7.1
2018-12-23T06:44:03.014Z,7
2018-12-23T06:44:43.559Z,7.07
2018-12-23T06:45:24.124Z,7.07
2018-12-23T06:46:04.679Z,7.05
2018-12-23T06:46:45.247Z,7.1
2018-12-23T06:47:25.860Z,7.11
2018-12-23T06:48:06.420Z,7.03
2018-12-23T06:48:46.990Z,6.97
2018-12-23T06:49:27.556Z,7.06
2018-12-23T06:50:08.134Z,7.03
2018-12-23T06:50:48.705Z,7.11
2018-12-23T06:51:29.278Z,7.05
2018-12-23T06:52:09.828Z,7.07
2018-12-23T06:52:50.429Z,7.02
2018-12-23T06:53:30.980Z,7.02
2018-12-23T06:54:11.554Z,7.1
2018-12-23T06:54:52.104Z,7.1
2018-12-23T06:55:32.665Z,7.13
2018-12-23T06:56:13.247Z,7.1
2018-12-23T06:56:53.807Z,7.07
2018-12-23T06:57:34.434Z,7.11
2018-12-23T06:58:14.988Z,7.07
2018-12-23T06:58:55.549Z,7.14
2018-12-23T06:59:36.109Z,7.05
2018-12-23T07:00:16.674Z,7.05
2018-12-23T07:00:57.231Z,7.06
2018-12-23T07:01:37.783Z,7.13
2018-12-23T07:02:18.385Z,7.15
2018-12-23T07:02:58.920Z,7.13
2018-12-23T07:03:39.475Z,7.14
2018-12-23T07:04:20.046Z,7.17
2018-12-23T07:05:00.668Z,7.17
2018-12-23T07:05:41.179Z,7.07
2018-12-23T07:06:21.784Z,7.2
2018-12-23T07:07:02.333Z,7.15
2018-12-23T07:07:42.883Z,7.13
2018-12-23T07:08:23.460Z,7.06
2018-12-23T07:09:04.035Z,7.11
2018-12-23T07:09:44.606Z,7.1
2018-12-23T07:10:25.180Z,7.02
2018-12-23T07:11:05.740Z,7.11
2018-12-23T07:11:46.301Z,7.1
2018-12-23T07:12:26.849Z,7.1
2018-12-23T07:13:07.421Z,7.1
2018-12-23T07:13:47.992Z,7.07
2018-12-23T07:14:28.560Z,7.1
2018-12-23T07:15:09.110Z,7.07
2018-12-23T07:15:49.679Z,7.02
2018-12-23T07:16:30.231Z,7.03
2018-12-23T07:17:10.821Z,7.03
2018-12-23T07:17:51.380Z,7.07
2018-12-23T07:18:31.933Z,7.11
2018-12-23T07:19:12.516Z,7.06
2018-12-23T07:19:53.054Z,7.1
2018-12-23T07:20:33.623Z,7.06
2018-12-23T07:21:14.190Z,7.13
2018-12-23T07:21:54.746Z,7.13
2018-12-23T07:22:35.313Z,7
2018-12-23T07:23:15.870Z,7.07
2018-12-23T07:23:56.447Z,7.11
2018-12-23T07:24:37.036Z,7.07
2018-12-23T07:25:17.582Z,7.11
2018-12-23T07:25:58.150Z,7.1
2018-12-23T07:26:38.734Z,7.07
2018-12-23T07:27:19.294Z,7.11
2018-12-23T07:27:59.865Z,7.1
2018-12-23T07:28:40.445Z,7.1
2018-12-23T07:29:20.994Z,7.14
2018-12-23T07:30:01.555Z,7.13
2018-12-23T07:30:42.149Z,7.11
2018-12-23T07:31:22.703Z,7.14
2018-12-23T07:32:03.298Z,7.1
2018-12-23T07:32:43.863Z,7.13
2018-12-23T07:33:24.453Z,7.13
2018-12-23T07:34:05.004Z,7.13
2018-12-23T07:34:45.626Z,7.13
2018-12-23T07:35:26.214Z,7.15
2018-12-23T07:36:06.795Z,7.13
2018-12-23T07:36:49.630Z,7.11
2018-12-23T07:37:28.034Z,7.13
2018-12-23T07:38:08.590Z,7.13
2018-12-23T07:38:49.169Z,7.2
2018-12-23T07:39:29.768Z,7.17
2018-12-23T07:40:10.370Z,7.17
2018-12-23T07:40:50.954Z,7.18
2018-12-23T07:41:31.535Z,7.18
2018-12-23T07:42:12.096Z,7.15
2018-12-23T07:42:52.653Z,7.18
2018-12-23T07:43:33.222Z,7.23
2018-12-23T07:44:13.810Z,7.21
2018-12-23T07:44:54.388Z,7.17
2018-12-23T07:45:34.980Z,7.23
2018-12-23T07:46:15.665Z,7.21
2018-12-23T07:46:56.221Z,7.14
2018-12-23T07:47:36.776Z,7.24
2018-12-23T07:48:17.392Z,7.18
2018-12-23T07:48:57.970Z,7.25
2018-12-23T07:49:38.542Z,7.15
2018-12-23T07:50:19.103Z,7.28
2018-12-23T07:50:59.657Z,7.21
2018-12-23T07:51:40.218Z,7.23
2018-12-23T07:52:20.778Z,7.21
2018-12-23T07:53:01.339Z,7.23
2018-12-23T07:53:41.908Z,7.23
2018-12-23T07:54:22.468Z,7.23
2018-12-23T07:55:03.023Z,7.24
2018-12-23T07:55:43.592Z,7.18
2018-12-23T07:56:24.155Z,7.18
2018-12-23T07:57:04.713Z,7.23
2018-12-23T07:57:45.274Z,7.18
2018-12-23T07:58:25.856Z,7.17
2018-12-23T07:59:06.427Z,7.21
2018-12-23T07:59:47.089Z,7.2
2018-12-23T08:00:27.543Z,7.18
2018-12-23T08:02:15.048Z,7.18
2018-12-23T08:02:55.636Z,7.24
2018-12-23T08:03:36.206Z,7.18
2018-12-23T08:04:16.796Z,7.2
2018-12-23T08:04:57.371Z,7.23
2018-12-23T08:05:37.928Z,7.25
2018-12-23T08:06:18.512Z,7.21
2018-12-23T08:06:59.103Z,7.23
2018-12-23T08:07:39.661Z,7.18
2018-12-23T08:08:20.228Z,7.21
2018-12-23T08:09:00.779Z,7.17
2018-12-23T08:09:41.407Z,7.25
2018-12-23T08:10:21.982Z,7.23
2018-12-23T08:11:02.614Z,7.18
2018-12-23T08:11:43.212Z,7.2
2018-12-23T08:12:23.786Z,7.2
2018-12-23T08:13:04.359Z,7.21
2018-12-23T08:13:44.940Z,7.25
2018-12-23T08:14:25.507Z,7.15
2018-12-23T08:15:06.078Z,7.2
2018-12-23T08:15:46.668Z,7.17
2018-12-23T08:16:27.226Z,7.24
2018-12-23T08:17:07.809Z,7.18
2018-12-23T08:17:48.380Z,7.23
2018-12-23T08:18:28.969Z,7.29
2018-12-23T08:19:09.546Z,7.2
2018-12-23T08:19:50.103Z,7.17
2018-12-23T08:20:30.673Z,7.29
2018-12-23T08:21:11.236Z,7.25
2018-12-23T08:21:51.799Z,7.31
2018-12-23T08:22:32.387Z,7.29
2018-12-23T08:23:12.970Z,7.25
2018-12-23T08:23:53.538Z,7.33
2018-12-23T08:24:34.112Z,7.29
2018-12-23T08:25:14.683Z,7.33
2018-12-23T08:25:55.264Z,7.29
2018-12-23T08:26:35.880Z,7.32
2018-12-23T08:27:16.452Z,7.25
2018-12-23T08:27:57.207Z,7.24
2018-12-23T08:28:37.794Z,7.31
2018-12-23T08:29:18.389Z,7.24
2018-12-23T08:29:58.982Z,7.31
2018-12-23T08:30:39.571Z,7.28
2018-12-23T08:31:20.162Z,7.29
2018-12-23T08:32:00.864Z,7.33
2018-12-23T08:32:42.168Z,7.35
2018-12-23T08:33:23.011Z,7.31
2018-12-23T08:34:03.988Z,7.32
2018-12-23T08:34:45.001Z,7.38
2018-12-23T08:35:25.794Z,7.39
2018-12-23T08:36:06.714Z,7.33
2018-12-23T08:36:47.629Z,7.36
2018-12-23T08:37:28.611Z,7.33
2018-12-23T08:38:09.324Z,7.35
2018-12-23T08:38:50.258Z,7.32
2018-12-23T08:39:31.138Z,7.38
2018-12-23T08:40:11.811Z,7.32
2018-12-23T08:40:52.456Z,7.42
2018-12-23T08:41:33.152Z,7.45
2018-12-23T08:42:13.564Z,7.42
2018-12-23T08:42:54.153Z,7.4
2018-12-23T08:43:35.060Z,7.48
2018-12-23T08:44:15.799Z,7.42
2018-12-23T08:44:56.391Z,7.43
2018-12-23T08:45:36.985Z,7.43
2018-12-23T08:46:17.574Z,7.48
2018-12-23T08:46:58.179Z,7.47
2018-12-23T08:47:38.779Z,7.53
2018-12-23T08:48:19.357Z,7.56
2018-12-23T08:48:59.941Z,7.5
2018-12-23T08:49:40.566Z,7.54
2018-12-23T08:50:21.131Z,7.51
2018-12-23T08:51:01.744Z,7.51
2018-12-23T08:51:42.456Z,7.6
2018-12-23T08:52:23.048Z,7.56
2018-12-23T08:53:03.648Z,7.53
2018-12-23T08:53:44.182Z,7.56
2018-12-23T08:54:24.757Z,7.6
2018-12-23T08:55:05.353Z,7.6
2018-12-23T08:55:45.927Z,7.58
2018-12-23T08:56:26.566Z,7.61
2018-12-23T08:57:07.136Z,7.57
2018-12-23T08:57:47.714Z,7.66
2018-12-23T08:58:28.300Z,7.6
2018-12-23T08:59:08.918Z,7.69
2018-12-23T08:59:49.515Z,7.6
2018-12-23T09:00:30.134Z,7.58
2018-12-23T09:01:10.708Z,7.6
2018-12-23T09:01:51.307Z,7.63
2018-12-23T09:02:31.929Z,7.6
2018-12-23T09:03:18.757Z,7.6